sensor_id;sensor_type;location;lat;lon;timestamp;pressure;altitude;pressure_sealevel;temperature;humidity
23643;BME280;11998;55.788;37.572;2023-01-29T00:00:08;99265.63;;;-0.72;100.00
23643;BME280;11998;55.788;37.572;2023-01-29T00:01:11;99267.25;;;-0.77;100.00
23643;BME280;11998;55.788;37.572;2023-01-29T00:02:12;99269.81;;;-0.79;100.00
23643;BME280;11998;55.788;37.572;2023-01-29T00:03:12;99262.88;;;-0.78;100.00
23643;BME280;11998;55.788;37.572;2023-01-29T00:04:13;99262.03;;;-0.77;100.00
23643;BME280;11998;55.788;37.572;2023-01-29T00:05:13;99258.53;;;-0.79;100.00
23643;BME280;11998;55.788;37.572;2023-01-29T00:06:14;99263.75;;;-0.79;100.00
23643;BME280;11998;55.788;37.572;2023-01-29T00:07:15;99263.78;;;-0.76;100.00
23643;BME280;11998;55.788;37.572;2023-01-29T00:08:15;99266.41;;;-0.75;100.00
23643;BME280;11998;55.788;37.572;2023-01-29T00:09:16;99262.13;;;-0.74;100.00
23643;BME280;11998;55.788;37.572;2023-01-29T00:10:17;99261.19;;;-0.76;100.00
23643;BME280;11998;55.788;37.572;2023-01-29T00:11:17;99260.31;;;-0.77;100.00
23643;BME280;11998;55.788;37.572;2023-01-29T00:12:19;99270.75;;;-0.75;100.00
23643;BME280;11998;55.788;37.572;2023-01-29T00:13:20;99263.88;;;-0.73;100.00
23643;BME280;11998;55.788;37.572;2023-01-29T00:14:20;99269.81;;;-0.79;100.00
23643;BME280;11998;55.788;37.572;2023-01-29T00:15:21;99266.38;;;-0.78;100.00
23643;BME280;11998;55.788;37.572;2023-01-29T00:16:21;99264.59;;;-0.80;100.00
23643;BME280;11998;55.788;37.572;2023-01-29T00:17:22;99261.28;;;-0.73;100.00
23643;BME280;11998;55.788;37.572;2023-01-29T00:18:23;99258.59;;;-0.76;100.00
23643;BME280;11998;55.788;37.572;2023-01-29T00:19:23;99260.31;;;-0.77;100.00
23643;BME280;11998;55.788;37.572;2023-01-29T00:20:24;99260.28;;;-0.78;100.00
23643;BME280;11998;55.788;37.572;2023-01-29T00:21:24;99255.94;;;-0.79;100.00
23643;BME280;11998;55.788;37.572;2023-01-29T00:22:25;99249.84;;;-0.81;100.00
23643;BME280;11998;55.788;37.572;2023-01-29T00:23:25;99253.28;;;-0.82;100.00
23643;BME280;11998;55.788;37.572;2023-01-29T00:24:26;99251.59;;;-0.80;100.00
23643;BME280;11998;55.788;37.572;2023-01-29T00:25:26;99255.94;;;-0.79;100.00
23643;BME280;11998;55.788;37.572;2023-01-29T00:26:27;99259.38;;;-0.82;100.00
23643;BME280;11998;55.788;37.572;2023-01-29T00:27:28;99255.09;;;-0.78;100.00
23643;BME280;11998;55.788;37.572;2023-01-29T00:28:28;99249.91;;;-0.78;100.00
23643;BME280;11998;55.788;37.572;2023-01-29T00:29:29;99249.91;;;-0.78;100.00
23643;BME280;11998;55.788;37.572;2023-01-29T00:30:29;99254.16;;;-0.82;100.00
23643;BME280;11998;55.788;37.572;2023-01-29T00:31:30;99248.28;;;-0.73;100.00
23643;BME280;11998;55.788;37.572;2023-01-29T00:32:31;99246.53;;;-0.74;100.00
23643;BME280;11998;55.788;37.572;2023-01-29T00:33:31;99248.28;;;-0.73;100.00
23643;BME280;11998;55.788;37.572;2023-01-29T00:34:32;99237.78;;;-0.76;100.00
23643;BME280;11998;55.788;37.572;2023-01-29T00:35:33;99234.34;;;-0.75;100.00
23643;BME280;11998;55.788;37.572;2023-01-29T00:36:33;99245.53;;;-0.79;100.00
23643;BME280;11998;55.788;37.572;2023-01-29T00:37:34;99240.31;;;-0.81;100.00
23643;BME280;11998;55.788;37.572;2023-01-29T00:38:36;99239.41;;;-0.84;100.00
23643;BME280;11998;55.788;37.572;2023-01-29T00:39:36;99228.00;;;-0.90;100.00
23643;BME280;11998;55.788;37.572;2023-01-29T00:40:40;99228.09;;;-0.86;100.00
23643;BME280;11998;55.788;37.572;2023-01-29T00:41:59;99216.91;;;-0.82;100.00
23643;BME280;11998;55.788;37.572;2023-01-29T00:43:20;99214.28;;;-0.84;100.00
23643;BME280;11998;55.788;37.572;2023-01-29T00:44:40;99212.72;;;-0.74;100.00
23643;BME280;11998;55.788;37.572;2023-01-29T00:45:59;99217.00;;;-0.76;100.00
23643;BME280;11998;55.788;37.572;2023-01-29T00:47:00;99217.78;;;-0.82;100.00
23643;BME280;11998;55.788;37.572;2023-01-29T00:48:01;99213.47;;;-0.80;100.00
23643;BME280;11998;55.788;37.572;2023-01-29T00:49:02;99215.19;;;-0.80;100.00
23643;BME280;11998;55.788;37.572;2023-01-29T00:50:06;99210.91;;;-0.78;100.00
23643;BME280;11998;55.788;37.572;2023-01-29T00:51:07;99214.41;;;-0.76;100.00
23643;BME280;11998;55.788;37.572;2023-01-29T00:52:07;99214.41;;;-0.75;100.00
23643;BME280;11998;55.788;37.572;2023-01-29T00:53:23;99208.28;;;-0.78;100.00
23643;BME280;11998;55.788;37.572;2023-01-29T00:54:23;99210.19;;;-0.71;100.00
23643;BME280;11998;55.788;37.572;2023-01-29T00:55:24;99210.19;;;-0.71;100.00
23643;BME280;11998;55.788;37.572;2023-01-29T00:56:26;99211.03;;;-0.72;100.00
23643;BME280;11998;55.788;37.572;2023-01-29T00:57:28;99216.16;;;-0.75;100.00
23643;BME280;11998;55.788;37.572;2023-01-29T00:58:29;99219.69;;;-0.72;100.00
23643;BME280;11998;55.788;37.572;2023-01-29T00:59:33;99215.31;;;-0.74;100.00
23643;BME280;11998;55.788;37.572;2023-01-29T01:00:34;99203.97;;;-0.78;100.00
23643;BME280;11998;55.788;37.572;2023-01-29T01:01:34;99209.13;;;-0.81;100.00
23643;BME280;11998;55.788;37.572;2023-01-29T01:02:53;99207.19;;;-0.91;100.00
23643;BME280;11998;55.788;37.572;2023-01-29T01:04:09;99206.31;;;-0.92;100.00
23643;BME280;11998;55.788;37.572;2023-01-29T01:05:12;99213.41;;;-0.83;100.00
23643;BME280;11998;55.788;37.572;2023-01-29T01:06:16;99208.00;;;-0.94;100.00
23643;BME280;11998;55.788;37.572;2023-01-29T01:07:18;99202.88;;;-0.91;100.00
23643;BME280;11998;55.788;37.572;2023-01-29T01:08:18;99201.19;;;-0.87;100.00
23643;BME280;11998;55.788;37.572;2023-01-29T01:09:37;99208.25;;;-0.81;100.00
23643;BME280;11998;55.788;37.572;2023-01-29T01:10:58;99199.59;;;-0.80;100.00
23643;BME280;11998;55.788;37.572;2023-01-29T01:11:59;99206.44;;;-0.85;100.00
23643;BME280;11998;55.788;37.572;2023-01-29T01:13:02;99210.88;;;-0.80;100.00
23643;BME280;11998;55.788;37.572;2023-01-29T01:14:03;99203.91;;;-0.82;100.00
23643;BME280;11998;55.788;37.572;2023-01-29T01:15:04;99210.03;;;-0.77;100.00
23643;BME280;11998;55.788;37.572;2023-01-29T01:16:12;99210.91;;;-0.77;100.00
23643;BME280;11998;55.788;37.572;2023-01-29T01:17:13;99214.50;;;-0.72;100.00
23643;BME280;11998;55.788;37.572;2023-01-29T01:18:14;99217.94;;;-0.73;100.00
23643;BME280;11998;55.788;37.572;2023-01-29T01:19:15;99213.44;;;-0.81;100.00
23643;BME280;11998;55.788;37.572;2023-01-29T01:20:16;99218.59;;;-0.84;100.00
23643;BME280;11998;55.788;37.572;2023-01-29T01:21:16;99213.25;;;-0.91;100.00
23643;BME280;11998;55.788;37.572;2023-01-29T01:22:17;99217.59;;;-0.91;100.00
23643;BME280;11998;55.788;37.572;2023-01-29T01:23:18;99211.56;;;-0.89;100.00
23643;BME280;11998;55.788;37.572;2023-01-29T01:24:19;99222.03;;;-0.85;100.00
23643;BME280;11998;55.788;37.572;2023-01-29T01:25:21;99212.53;;;-0.85;100.00
23643;BME280;11998;55.788;37.572;2023-01-29T01:26:22;99209.91;;;-0.86;100.00
23643;BME280;11998;55.788;37.572;2023-01-29T01:27:23;99215.84;;;-0.91;100.00
23643;BME280;11998;55.788;37.572;2023-01-29T01:28:25;99206.50;;;-0.82;100.00
23643;BME280;11998;55.788;37.572;2023-01-29T01:29:26;99206.50;;;-0.82;100.00
23643;BME280;11998;55.788;37.572;2023-01-29T01:30:27;99206.53;;;-0.79;100.00
23643;BME280;11998;55.788;37.572;2023-01-29T01:31:27;99210.13;;;-0.74;100.00
23643;BME280;11998;55.788;37.572;2023-01-29T01:32:28;99210.19;;;-0.71;100.00
23643;BME280;11998;55.788;37.572;2023-01-29T01:33:29;99201.34;;;-0.79;100.00
23643;BME280;11998;55.788;37.572;2023-01-29T01:34:29;99194.41;;;-0.80;100.00
23643;BME280;11998;55.788;37.572;2023-01-29T01:35:30;99204.84;;;-0.77;100.00
23643;BME280;11998;55.788;37.572;2023-01-29T01:36:30;99206.53;;;-0.79;100.00
23643;BME280;11998;55.788;37.572;2023-01-29T01:37:31;99203.91;;;-0.82;100.00
23643;BME280;11998;55.788;37.572;2023-01-29T01:38:32;99202.97;;;-0.86;100.00
23643;BME280;11998;55.788;37.572;2023-01-29T01:39:34;99203.75;;;-0.89;100.00
23643;BME280;11998;55.788;37.572;2023-01-29T01:40:35;99207.16;;;-0.93;100.00
23643;BME280;11998;55.788;37.572;2023-01-29T01:41:36;99201.25;;;-0.85;100.00
23643;BME280;11998;55.788;37.572;2023-01-29T01:42:36;99196.09;;;-0.82;100.00
23643;BME280;11998;55.788;37.572;2023-01-29T01:43:54;99204.78;;;-0.80;100.00
23643;BME280;11998;55.788;37.572;2023-01-29T01:45:00;99206.69;;;-0.72;100.00
23643;BME280;11998;55.788;37.572;2023-01-29T01:46:04;99201.53;;;-0.70;100.00
23643;BME280;11998;55.788;37.572;2023-01-29T01:47:04;99191.06;;;-0.73;100.00
23643;BME280;11998;55.788;37.572;2023-01-29T01:48:25;99197.81;;;-0.83;100.00
23643;BME280;11998;55.788;37.572;2023-01-29T01:49:26;99190.25;;;-0.71;100.00
23643;BME280;11998;55.788;37.572;2023-01-29T01:51:39;99191.13;;;-0.70;100.00
23643;BME280;11998;55.788;37.572;2023-01-29T01:52:45;99191.03;;;-0.75;100.00
23643;BME280;11998;55.788;37.572;2023-01-29T01:54:10;99187.53;;;-0.75;100.00
23643;BME280;11998;55.788;37.572;2023-01-29T01:55:13;99188.19;;;-0.87;100.00
23643;BME280;11998;55.788;37.572;2023-01-29T01:56:24;99182.72;;;-1.02;100.00
23643;BME280;11998;55.788;37.572;2023-01-29T01:57:26;99187.03;;;-1.03;100.00
23643;BME280;11998;55.788;37.572;2023-01-29T01:58:35;99183.75;;;-0.93;100.00
23643;BME280;11998;55.788;37.572;2023-01-29T01:59:37;99179.41;;;-0.95;100.00
23643;BME280;11998;55.788;37.572;2023-01-29T02:00:39;99176.88;;;-0.91;100.00
23643;BME280;11998;55.788;37.572;2023-01-29T02:01:42;99176.63;;;-1.03;100.00
23643;BME280;11998;55.788;37.572;2023-01-29T02:02:45;99183.06;;;-0.85;100.00
23643;BME280;11998;55.788;37.572;2023-01-29T02:04:16;99176.81;;;-0.94;100.00
23643;BME280;11998;55.788;37.572;2023-01-29T02:05:36;99172.53;;;-0.92;100.00
23643;BME280;11998;55.788;37.572;2023-01-29T02:06:57;99172.53;;;-0.90;100.00
23643;BME280;11998;55.788;37.572;2023-01-29T02:08:29;99168.22;;;-0.90;100.00
23643;BME280;11998;55.788;37.572;2023-01-29T02:09:54;99167.94;;;-1.05;100.00
23643;BME280;11998;55.788;37.572;2023-01-29T02:11:01;99167.22;;;-0.98;100.00
23643;BME280;11998;55.788;37.572;2023-01-29T02:12:04;99162.94;;;-0.96;100.00
23643;BME280;11998;55.788;37.572;2023-01-29T02:13:05;99162.97;;;-0.93;100.00
23643;BME280;11998;55.788;37.572;2023-01-29T02:14:06;99168.34;;;-0.83;100.00
23643;BME280;11998;55.788;37.572;2023-01-29T02:15:07;99158.03;;;-0.79;100.00
23643;BME280;11998;55.788;37.572;2023-01-29T02:16:09;99161.38;;;-0.86;100.00
23643;BME280;11998;55.788;37.572;2023-01-29T02:17:14;99160.41;;;-0.91;100.00
23643;BME280;11998;55.788;37.572;2023-01-29T02:18:16;99154.31;;;-0.92;100.00
23643;BME280;11998;55.788;37.572;2023-01-29T02:22:39;99153.28;;;-1.01;100.00
23643;BME280;11998;55.788;37.572;2023-01-29T02:24:10;99147.28;;;-0.99;100.00
23643;BME280;11998;55.788;37.572;2023-01-29T02:28:20;99136.94;;;-0.96;100.00
23643;BME280;11998;55.788;37.572;2023-01-29T02:29:46;99138.84;;;-0.85;100.00
23643;BME280;11998;55.788;37.572;2023-01-29T02:31:15;99136.16;;;-0.90;100.00
23643;BME280;11998;55.788;37.572;2023-01-29T02:34:21;99134.88;;;-1.12;100.00
23643;BME280;11998;55.788;37.572;2023-01-29T02:35:34;99131.50;;;-1.08;100.00
23643;BME280;11998;55.788;37.572;2023-01-29T02:36:41;99119.38;;;-1.09;100.00
23643;BME280;11998;55.788;37.572;2023-01-29T02:40:16;99130.44;;;-1.17;100.00
23643;BME280;11998;55.788;37.572;2023-01-29T02:42:54;99117.31;;;-1.25;100.00
23643;BME280;11998;55.788;37.572;2023-01-29T02:44:22;99112.06;;;-1.28;100.00
23643;BME280;11998;55.788;37.572;2023-01-29T02:47:17;99116.78;;;-1.53;100.00
23643;BME280;11998;55.788;37.572;2023-01-29T02:48:22;99114.06;;;-1.59;100.00
23643;BME280;11998;55.788;37.572;2023-01-29T02:49:45;99105.66;;;-1.45;100.00
23643;BME280;11998;55.788;37.572;2023-01-29T02:52:24;99105.75;;;-1.41;100.00
23643;BME280;11998;55.788;37.572;2023-01-29T02:53:26;99108.47;;;-1.36;100.00
23643;BME280;11998;55.788;37.572;2023-01-29T02:54:40;99109.50;;;-1.27;100.00
23643;BME280;11998;55.788;37.572;2023-01-29T02:55:52;99112.09;;;-1.25;100.00
23643;BME280;11998;55.788;37.572;2023-01-29T02:57:04;99101.66;;;-1.28;100.00
23643;BME280;11998;55.788;37.572;2023-01-29T02:58:13;99095.56;;;-1.30;100.00
23643;BME280;11998;55.788;37.572;2023-01-29T02:59:22;99094.69;;;-1.32;100.00
23643;BME280;11998;55.788;37.572;2023-01-29T03:00:28;99098.22;;;-1.27;100.00
23643;BME280;11998;55.788;37.572;2023-01-29T03:01:33;99084.22;;;-1.35;100.00
23643;BME280;11998;55.788;37.572;2023-01-29T03:03:01;99093.78;;;-1.34;100.00
23643;BME280;11998;55.788;37.572;2023-01-29T03:04:06;99091.84;;;-1.44;100.00
23643;BME280;11998;55.788;37.572;2023-01-29T03:05:13;99092.72;;;-1.44;100.00
23643;BME280;11998;55.788;37.572;2023-01-29T03:06:17;99091.94;;;-1.38;100.00
23643;BME280;11998;55.788;37.572;2023-01-29T03:07:25;99092.88;;;-1.36;100.00
23643;BME280;11998;55.788;37.572;2023-01-29T03:08:52;99091.91;;;-1.41;100.00
23643;BME280;11998;55.788;37.572;2023-01-29T03:09:55;99098.00;;;-1.38;100.00
23643;BME280;11998;55.788;37.572;2023-01-29T03:11:00;99092.81;;;-1.38;100.00
23643;BME280;11998;55.788;37.572;2023-01-29T03:12:22;99092.94;;;-1.32;100.00
23643;BME280;11998;55.788;37.572;2023-01-29T03:13:52;99090.19;;;-1.39;100.00
23643;BME280;11998;55.788;37.572;2023-01-29T03:14:56;99089.09;;;-1.51;100.00
23643;BME280;11998;55.788;37.572;2023-01-29T03:16:30;99089.25;;;-1.44;100.00
23643;BME280;11998;55.788;37.572;2023-01-29T03:17:37;99084.72;;;-1.55;100.00
23643;BME280;11998;55.788;37.572;2023-01-29T03:18:43;99072.56;;;-1.57;100.00
23643;BME280;11998;55.788;37.572;2023-01-29T03:19:47;99083.50;;;-1.72;100.00
23643;BME280;11998;55.788;37.572;2023-01-29T03:20:53;99081.16;;;-1.60;100.00
23643;BME280;11998;55.788;37.572;2023-01-29T03:21:59;99071.78;;;-1.52;100.00
23643;BME280;11998;55.788;37.572;2023-01-29T03:23:08;99066.72;;;-1.45;100.00
23643;BME280;11998;55.788;37.572;2023-01-29T03:24:12;99071.72;;;-1.55;100.00
23643;BME280;11998;55.788;37.572;2023-01-29T03:25:34;99067.66;;;-1.42;100.00
23643;BME280;11998;55.788;37.572;2023-01-29T03:26:55;99062.34;;;-1.48;100.00
23643;BME280;11998;55.788;37.572;2023-01-29T03:28:17;99050.84;;;-1.61;100.00
23643;BME280;11998;55.788;37.572;2023-01-29T03:29:37;99044.00;;;-1.56;100.00
23643;BME280;11998;55.788;37.572;2023-01-29T03:31:03;99049.41;;;-1.46;100.00
23643;BME280;11998;55.788;37.572;2023-01-29T03:32:24;99047.72;;;-1.43;100.00
23643;BME280;11998;55.788;37.572;2023-01-29T03:33:30;99040.97;;;-1.33;100.00
23643;BME280;11998;55.788;37.572;2023-01-29T03:34:41;99045.16;;;-1.41;100.00
23643;BME280;11998;55.788;37.572;2023-01-29T03:35:55;99044.19;;;-1.46;100.00
23643;BME280;11998;55.788;37.572;2023-01-29T03:37:01;99041.59;;;-1.46;100.00
23643;BME280;11998;55.788;37.572;2023-01-29T03:38:04;99040.13;;;-1.32;100.00
23643;BME280;11998;55.788;37.572;2023-01-29T03:39:07;99046.16;;;-1.33;100.00
23643;BME280;11998;55.788;37.572;2023-01-29T03:40:09;99037.34;;;-1.41;100.00
23643;BME280;11998;55.788;37.572;2023-01-29T03:41:27;99041.69;;;-1.40;100.00
23643;BME280;11998;55.788;37.572;2023-01-29T03:47:17;99023.19;;;-1.59;100.00
23643;BME280;11998;55.788;37.572;2023-01-29T03:48:35;99030.19;;;-1.55;100.00
23643;BME280;11998;55.788;37.572;2023-01-29T03:50:59;99026.22;;;-1.81;100.00
23643;BME280;11998;55.788;37.572;2023-01-29T03:52:35;99034.53;;;-1.97;100.00
23643;BME280;11998;55.788;37.572;2023-01-29T03:53:43;99026.59;;;-2.05;100.00
23643;BME280;11998;55.788;37.572;2023-01-29T03:55:07;99026.84;;;-1.93;100.00
23643;BME280;11998;55.788;37.572;2023-01-29T03:57:30;99020.38;;;-1.71;100.00
23643;BME280;11998;55.788;37.572;2023-01-29T03:59:59;99020.75;;;-1.50;100.00
23643;BME280;11998;55.788;37.572;2023-01-29T04:01:17;99012.00;;;-1.55;100.00
23643;BME280;11998;55.788;37.572;2023-01-29T04:02:22;99014.56;;;-1.58;100.00
23643;BME280;11998;55.788;37.572;2023-01-29T04:03:33;99005.88;;;-1.60;100.00
23643;BME280;11998;55.788;37.572;2023-01-29T04:04:37;99004.16;;;-1.58;100.00
23643;BME280;11998;55.788;37.572;2023-01-29T04:05:42;99010.19;;;-1.60;100.00
23643;BME280;11998;55.788;37.572;2023-01-29T04:06:46;99000.59;;;-1.63;100.00
23643;BME280;11998;55.788;37.572;2023-01-29T04:07:53;99004.13;;;-1.61;100.00
23643;BME280;11998;55.788;37.572;2023-01-29T04:10:09;99009.38;;;-1.58;100.00
23643;BME280;11998;55.788;37.572;2023-01-29T04:11:14;99011.28;;;-1.48;100.00
23643;BME280;11998;55.788;37.572;2023-01-29T04:12:25;99000.97;;;-1.43;100.00
23643;BME280;11998;55.788;37.572;2023-01-29T04:13:26;99006.22;;;-1.38;100.00
23643;BME280;11998;55.788;37.572;2023-01-29T04:14:27;99002.03;;;-1.32;100.00
23643;BME280;11998;55.788;37.572;2023-01-29T04:15:30;98999.50;;;-1.27;100.00
23643;BME280;11998;55.788;37.572;2023-01-29T04:16:39;99000.41;;;-1.25;100.00
23643;BME280;11998;55.788;37.572;2023-01-29T04:17:46;99001.38;;;-1.20;100.00
23643;BME280;11998;55.788;37.572;2023-01-29T04:18:48;98998.75;;;-1.23;100.00
23643;BME280;11998;55.788;37.572;2023-01-29T04:19:49;98996.00;;;-1.29;100.00
23643;BME280;11998;55.788;37.572;2023-01-29T04:20:50;98994.34;;;-1.24;100.00
23643;BME280;11998;55.788;37.572;2023-01-29T04:22:01;99000.38;;;-1.27;100.00
23643;BME280;11998;55.788;37.572;2023-01-29T04:23:05;98997.59;;;-1.37;100.00
23643;BME280;11998;55.788;37.572;2023-01-29T04:24:06;98994.09;;;-1.39;100.00
23643;BME280;11998;55.788;37.572;2023-01-29T04:25:11;99006.16;;;-1.44;100.00
23643;BME280;11998;55.788;37.572;2023-01-29T04:26:24;99003.41;;;-1.52;100.00
23643;BME280;11998;55.788;37.572;2023-01-29T04:28:59;98996.50;;;-1.50;100.00
23643;BME280;11998;55.788;37.572;2023-01-29T04:31:22;98995.75;;;-1.44;100.00
23643;BME280;11998;55.788;37.572;2023-01-29T04:34:59;98990.38;;;-1.54;100.00
23643;BME280;11998;55.788;37.572;2023-01-29T04:40:19;98988.22;;;-1.76;100.00
23643;BME280;11998;55.788;37.572;2023-01-29T04:41:25;98993.44;;;-1.76;100.00
23643;BME280;11998;55.788;37.572;2023-01-29T04:42:45;98985.72;;;-1.73;100.00
23643;BME280;11998;55.788;37.572;2023-01-29T04:43:54;98983.13;;;-1.73;100.00
23643;BME280;11998;55.788;37.572;2023-01-29T04:46:48;98986.47;;;-1.77;100.00
23643;BME280;11998;55.788;37.572;2023-01-29T04:50:40;98993.19;;;-1.88;100.00
23643;BME280;11998;55.788;37.572;2023-01-29T04:53:18;98986.25;;;-1.89;100.00
23643;BME280;11998;55.788;37.572;2023-01-29T04:54:35;98987.84;;;-1.97;100.00
23643;BME280;11998;55.788;37.572;2023-01-29T04:56:08;98989.69;;;-1.90;100.00
23643;BME280;11998;55.788;37.572;2023-01-29T04:57:19;98986.19;;;-1.92;100.00
23643;BME280;11998;55.788;37.572;2023-01-29T04:58:53;98984.44;;;-1.93;100.00
23643;BME280;11998;55.788;37.572;2023-01-29T05:00:08;98974.94;;;-1.93;100.00
23643;BME280;11998;55.788;37.572;2023-01-29T05:01:13;98982.75;;;-1.91;100.00
23643;BME280;11998;55.788;37.572;2023-01-29T05:02:15;98982.75;;;-1.91;100.00
23643;BME280;11998;55.788;37.572;2023-01-29T05:03:17;98984.44;;;-1.93;100.00
23643;BME280;11998;55.788;37.572;2023-01-29T05:04:19;98985.28;;;-1.96;100.00
23643;BME280;11998;55.788;37.572;2023-01-29T05:05:20;98982.66;;;-1.97;100.00
23643;BME280;11998;55.788;37.572;2023-01-29T05:06:21;98982.47;;;-2.07;100.00
23643;BME280;11998;55.788;37.572;2023-01-29T05:07:25;98979.13;;;-1.99;100.00
23643;BME280;11998;55.788;37.572;2023-01-29T05:08:29;98987.69;;;-2.03;100.00
23643;BME280;11998;55.788;37.572;2023-01-29T05:09:31;98977.31;;;-2.03;100.00
23643;BME280;11998;55.788;37.572;2023-01-29T05:10:34;98976.44;;;-2.04;100.00
23643;BME280;11998;55.788;37.572;2023-01-29T05:11:35;98984.25;;;-2.02;100.00
23643;BME280;11998;55.788;37.572;2023-01-29T05:12:37;98975.63;;;-2.01;100.00
23643;BME280;11998;55.788;37.572;2023-01-29T05:13:40;98975.72;;;-1.98;100.00
23643;BME280;11998;55.788;37.572;2023-01-29T05:14:43;98974.06;;;-1.93;100.00
23643;BME280;11998;55.788;37.572;2023-01-29T05:16:04;98984.50;;;-1.90;100.00
23643;BME280;11998;55.788;37.572;2023-01-29T05:17:13;98968.94;;;-1.90;100.00
23643;BME280;11998;55.788;37.572;2023-01-29T05:18:14;98974.91;;;-1.94;100.00
23643;BME280;11998;55.788;37.572;2023-01-29T05:19:16;98965.38;;;-1.95;100.00
23643;BME280;11998;55.788;37.572;2023-01-29T05:20:16;98975.03;;;-1.87;100.00
23643;BME280;11998;55.788;37.572;2023-01-29T05:21:17;98972.44;;;-1.87;100.00
23643;BME280;11998;55.788;37.572;2023-01-29T05:22:18;98970.72;;;-1.86;100.00
23643;BME280;11998;55.788;37.572;2023-01-29T05:23:22;98973.41;;;-1.83;100.00
23643;BME280;11998;55.788;37.572;2023-01-29T05:24:24;98978.59;;;-1.83;100.00
23643;BME280;11998;55.788;37.572;2023-01-29T05:25:31;98975.19;;;-1.81;100.00
23643;BME280;11998;55.788;37.572;2023-01-29T05:26:32;98986.44;;;-1.80;100.00
23643;BME280;11998;55.788;37.572;2023-01-29T05:27:52;98983.00;;;-1.79;100.00
23643;BME280;11998;55.788;37.572;2023-01-29T05:29:05;98984.69;;;-1.81;100.00
23643;BME280;11998;55.788;37.572;2023-01-29T05:30:07;98984.69;;;-1.81;100.00
23643;BME280;11998;55.788;37.572;2023-01-29T05:31:07;98976.09;;;-1.77;100.00
23643;BME280;11998;55.788;37.572;2023-01-29T05:32:08;98971.75;;;-1.78;100.00
23643;BME280;11998;55.788;37.572;2023-01-29T05:34:15;98970.16;;;-1.71;100.00
23643;BME280;11998;55.788;37.572;2023-01-29T05:35:17;98983.22;;;-1.67;100.00
23643;BME280;11998;55.788;37.572;2023-01-29T05:36:18;98976.28;;;-1.68;100.00
23643;BME280;11998;55.788;37.572;2023-01-29T05:37:18;98978.09;;;-1.64;100.00
23643;BME280;11998;55.788;37.572;2023-01-29T05:38:19;98977.22;;;-1.63;100.00
23643;BME280;11998;55.788;37.572;2023-01-29T05:39:20;98977.34;;;-1.58;100.00
23643;BME280;11998;55.788;37.572;2023-01-29T05:40:21;98977.34;;;-1.58;100.00
23643;BME280;11998;55.788;37.572;2023-01-29T05:41:21;98989.47;;;-1.57;100.00
23643;BME280;11998;55.788;37.572;2023-01-29T05:42:22;98984.38;;;-1.51;100.00
23643;BME280;11998;55.788;37.572;2023-01-29T05:43:24;98985.31;;;-1.48;100.00
23643;BME280;11998;55.788;37.572;2023-01-29T05:44:25;98980.16;;;-1.44;100.00
23643;BME280;11998;55.788;37.572;2023-01-29T05:45:25;98976.69;;;-1.46;100.00
23643;BME280;11998;55.788;37.572;2023-01-29T05:46:26;98975.69;;;-1.53;100.00
23643;BME280;11998;55.788;37.572;2023-01-29T05:47:26;98979.16;;;-1.51;100.00
23643;BME280;11998;55.788;37.572;2023-01-29T05:48:28;98971.41;;;-1.50;100.00
23643;BME280;11998;55.788;37.572;2023-01-29T05:49:28;98968.91;;;-1.45;100.00
23643;BME280;11998;55.788;37.572;2023-01-29T05:50:30;98969.75;;;-1.48;100.00
23643;BME280;11998;55.788;37.572;2023-01-29T05:51:30;98974.63;;;-1.63;100.00
23643;BME280;11998;55.788;37.572;2023-01-29T05:52:31;98964.19;;;-1.66;100.00
23643;BME280;11998;55.788;37.572;2023-01-29T05:53:32;98979.09;;;-1.56;100.00
23643;BME280;11998;55.788;37.572;2023-01-29T05:54:32;98980.97;;;-1.49;100.00
23643;BME280;11998;55.788;37.572;2023-01-29T05:55:33;98979.13;;;-1.54;100.00
23643;BME280;11998;55.788;37.572;2023-01-29T05:56:34;98974.78;;;-1.55;100.00
23643;BME280;11998;55.788;37.572;2023-01-29T05:57:34;98978.28;;;-1.53;100.00
23643;BME280;11998;55.788;37.572;2023-01-29T05:58:41;98978.25;;;-1.55;100.00
23643;BME280;11998;55.788;37.572;2023-01-29T05:59:42;98981.66;;;-1.59;100.00
23643;BME280;11998;55.788;37.572;2023-01-29T06:00:42;98974.75;;;-1.57;100.00
23643;BME280;11998;55.788;37.572;2023-01-29T06:01:43;98978.31;;;-1.52;100.00
23643;BME280;11998;55.788;37.572;2023-01-29T06:02:44;98981.00;;;-1.47;100.00
23643;BME280;11998;55.788;37.572;2023-01-29T06:03:45;98973.97;;;-1.53;100.00
23643;BME280;11998;55.788;37.572;2023-01-29T06:04:45;98977.56;;;-1.46;100.00
23643;BME280;11998;55.788;37.572;2023-01-29T06:05:46;98975.91;;;-1.39;100.00
23643;BME280;11998;55.788;37.572;2023-01-29T06:06:46;98978.38;;;-1.49;100.00
23643;BME280;11998;55.788;37.572;2023-01-29T06:07:47;98970.59;;;-1.49;100.00
23643;BME280;11998;55.788;37.572;2023-01-29T06:08:47;98974.22;;;-1.37;100.00
23643;BME280;11998;55.788;37.572;2023-01-29T06:09:48;98967.22;;;-1.43;100.00
23643;BME280;11998;55.788;37.572;2023-01-29T06:10:49;98965.34;;;-1.50;100.00
23643;BME280;11998;55.788;37.572;2023-01-29T06:11:49;98964.41;;;-1.54;100.00
23643;BME280;11998;55.788;37.572;2023-01-29T06:12:50;98963.53;;;-1.54;100.00
23643;BME280;11998;55.788;37.572;2023-01-29T06:13:50;98967.88;;;-1.55;100.00
23643;BME280;11998;55.788;37.572;2023-01-29T06:14:51;98960.13;;;-1.52;100.00
23643;BME280;11998;55.788;37.572;2023-01-29T06:15:51;98962.69;;;-1.55;100.00
23643;BME280;11998;55.788;37.572;2023-01-29T06:16:52;98955.69;;;-1.59;100.00
23643;BME280;11998;55.788;37.572;2023-01-29T06:17:53;98950.50;;;-1.59;100.00
23643;BME280;11998;55.788;37.572;2023-01-29T06:18:54;98954.72;;;-1.64;100.00
23643;BME280;11998;55.788;37.572;2023-01-29T06:19:54;98950.50;;;-1.59;100.00
23643;BME280;11998;55.788;37.572;2023-01-29T06:20:59;98945.41;;;-1.51;100.00
23643;BME280;11998;55.788;37.572;2023-01-29T06:22:00;98948.97;;;-1.48;100.00
23643;BME280;11998;55.788;37.572;2023-01-29T06:23:01;98957.47;;;-1.55;100.00